HYA weather

Barnstable Municipal Boardman Polando Field
Hyannis, Massachusetts, United States

Public forecast

Using degrees Fahrenheit for public forecast. Weather courtesy of forecast.io.

METAR (pilot weather report)

Retrieved 2019/05/25 15:56 UTC (29 minutes ago):

KHYA 251556Z 36009KT 10SM CLR 19/07 A3020 RMK AO2 SLP226 T01940067

TAF (pilot weather forecast)

Retrieved 2019/05/25 12:22 UTC (4 hours ago):

TAF KHYA 251120Z 2512/2612 29003KT P6SM SKC FM251900 23007KT P6SM SCT250 FM260000 22011KT P6SM BKN200 FM260400 21012KT P6SM VCSH BKN070 FM260700 20013G21KT 5SM -SHRA BR OVC050 FM261100 20015G26KT 5SM BR VCSH OVC008